sensor_id;sensor_type;location;lat;lon;timestamp;pressure;altitude;pressure_sealevel;temperature;humidity
19624;BME280;9959;49.798;9.928;2023-06-24T00:00:10;100500.63;;;15.69;100.00
19624;BME280;9959;49.798;9.928;2023-06-24T00:02:38;100498.94;;;15.50;100.00
19624;BME280;9959;49.798;9.928;2023-06-24T00:05:08;100499.25;;;15.60;100.00
19624;BME280;9959;49.798;9.928;2023-06-24T00:07:35;100493.72;;;15.73;100.00
19624;BME280;9959;49.798;9.928;2023-06-24T00:10:13;100503.81;;;15.66;100.00
19624;BME280;9959;49.798;9.928;2023-06-24T00:12:41;100500.47;;;15.64;100.00
19624;BME280;9959;49.798;9.928;2023-06-24T00:15:08;100501.25;;;15.71;100.00
19624;BME280;9959;49.798;9.928;2023-06-24T00:17:39;100499.97;;;15.74;100.00
19624;BME280;9959;49.798;9.928;2023-06-24T00:20:06;100492.19;;;15.59;100.00
19624;BME280;9959;49.798;9.928;2023-06-24T00:22:38;100496.72;;;15.65;100.00
19624;BME280;9959;49.798;9.928;2023-06-24T00:25:11;100494.31;;;15.57;100.00
19624;BME280;9959;49.798;9.928;2023-06-24T00:27:37;100500.69;;;15.38;100.00
19624;BME280;9959;49.798;9.928;2023-06-24T00:30:05;100499.78;;;15.26;100.00
19624;BME280;9959;49.798;9.928;2023-06-24T00:32:32;100501.03;;;15.48;100.00
19624;BME280;9959;49.798;9.928;2023-06-24T00:34:59;100512.63;;;15.62;100.00
19624;BME280;9959;49.798;9.928;2023-06-24T00:37:26;100508.56;;;15.46;100.00
19624;BME280;9959;49.798;9.928;2023-06-24T00:39:53;100508.22;;;15.36;100.00
19624;BME280;9959;49.798;9.928;2023-06-24T00:42:20;100507.13;;;15.43;100.00
19624;BME280;9959;49.798;9.928;2023-06-24T00:44:48;100505.28;;;15.37;100.00
19624;BME280;9959;49.798;9.928;2023-06-24T00:47:15;100496.66;;;15.47;100.00
19624;BME280;9959;49.798;9.928;2023-06-24T00:49:42;100499.59;;;15.20;100.00
19624;BME280;9959;49.798;9.928;2023-06-24T00:52:12;100496.81;;;15.02;100.00
19624;BME280;9959;49.798;9.928;2023-06-24T00:54:43;100487.63;;;15.03;100.00
19624;BME280;9959;49.798;9.928;2023-06-24T00:57:10;100496.28;;;15.18;100.00
19624;BME280;9959;49.798;9.928;2023-06-24T00:59:37;100499.25;;;15.10;100.00
19624;BME280;9959;49.798;9.928;2023-06-24T01:02:04;100493.38;;;15.13;100.00
19624;BME280;9959;49.798;9.928;2023-06-24T01:04:32;100497.09;;;14.94;100.00
19624;BME280;9959;49.798;9.928;2023-06-24T01:07:00;100494.88;;;14.78;100.00
19624;BME280;9959;49.798;9.928;2023-06-24T01:09:28;100493.56;;;14.87;100.00
19624;BME280;9959;49.798;9.928;2023-06-24T01:11:55;100495.06;;;14.83;100.00
19624;BME280;9959;49.798;9.928;2023-06-24T01:14:22;100490.97;;;14.74;100.00
19624;BME280;9959;49.798;9.928;2023-06-24T01:22:36;100485.78;;;14.66;100.00
19624;BME280;9959;49.798;9.928;2023-06-24T01:36:47;100484.00;;;14.84;100.00
19624;BME280;9959;49.798;9.928;2023-06-24T01:39:17;100485.34;;;14.69;100.00
19624;BME280;9959;49.798;9.928;2023-06-24T01:41:51;100482.03;;;14.67;100.00
19624;BME280;9959;49.798;9.928;2023-06-24T01:44:20;100477.84;;;14.71;100.00
19624;BME280;9959;49.798;9.928;2023-06-24T01:46:51;100471.09;;;14.48;100.00
19624;BME280;9959;49.798;9.928;2023-06-24T01:49:23;100467.47;;;14.61;100.00
19624;BME280;9959;49.798;9.928;2023-06-24T01:51:53;100470.63;;;14.51;100.00
19624;BME280;9959;49.798;9.928;2023-06-24T01:54:23;100484.66;;;14.48;100.00
19624;BME280;9959;49.798;9.928;2023-06-24T01:56:54;100481.75;;;14.43;100.00
19624;BME280;9959;49.798;9.928;2023-06-24T01:59:22;100477.94;;;14.51;100.00
19624;BME280;9959;49.798;9.928;2023-06-24T02:01:50;100480.91;;;14.43;100.00
19624;BME280;9959;49.798;9.928;2023-06-24T02:04:19;100490.13;;;14.29;100.00
19624;BME280;9959;49.798;9.928;2023-06-24T02:06:47;100490.31;;;14.27;100.00
19624;BME280;9959;49.798;9.928;2023-06-24T02:09:16;100491.34;;;14.33;100.00
19624;BME280;9959;49.798;9.928;2023-06-24T02:11:44;100489.44;;;14.40;100.00
19624;BME280;9959;49.798;9.928;2023-06-24T02:14:14;100483.94;;;14.15;100.00
19624;BME280;9959;49.798;9.928;2023-06-24T02:16:43;100484.78;;;14.09;100.00
19624;BME280;9959;49.798;9.928;2023-06-24T02:19:11;100478.56;;;14.02;100.00
19624;BME280;9959;49.798;9.928;2023-06-24T02:21:40;100485.63;;;14.09;100.00
19624;BME280;9959;49.798;9.928;2023-06-24T02:24:08;100489.38;;;14.02;100.00
19624;BME280;9959;49.798;9.928;2023-06-24T02:26:36;100488.16;;;13.98;100.00
19624;BME280;9959;49.798;9.928;2023-06-24T02:29:11;100487.53;;;13.96;100.00
19624;BME280;9959;49.798;9.928;2023-06-24T02:31:39;100482.38;;;13.87;100.00
19624;BME280;9959;49.798;9.928;2023-06-24T02:34:06;100478.81;;;13.87;100.00
19624;BME280;9959;49.798;9.928;2023-06-24T02:36:33;100477.31;;;13.98;100.00
19624;BME280;9959;49.798;9.928;2023-06-24T02:39:00;100478.56;;;13.95;100.00
19624;BME280;9959;49.798;9.928;2023-06-24T02:41:27;100476.53;;;13.91;100.00
19624;BME280;9959;49.798;9.928;2023-06-24T02:43:54;100474.03;;;13.82;100.00
19624;BME280;9959;49.798;9.928;2023-06-24T02:46:21;100465.28;;;13.80;100.00
19624;BME280;9959;49.798;9.928;2023-06-24T02:48:49;100474.88;;;13.70;100.00
19624;BME280;9959;49.798;9.928;2023-06-24T02:51:18;100474.06;;;13.69;100.00
19624;BME280;9959;49.798;9.928;2023-06-24T02:53:46;100469.09;;;13.66;100.00
19624;BME280;9959;49.798;9.928;2023-06-24T02:56:14;100472.63;;;13.60;100.00
19624;BME280;9959;49.798;9.928;2023-06-24T02:58:41;100469.72;;;13.55;100.00
19624;BME280;9959;49.798;9.928;2023-06-24T03:01:10;100473.28;;;13.49;100.00
19624;BME280;9959;49.798;9.928;2023-06-24T03:03:37;100484.94;;;13.43;100.00
19624;BME280;9959;49.798;9.928;2023-06-24T03:06:04;100483.72;;;13.39;100.00
19624;BME280;9959;49.798;9.928;2023-06-24T03:08:31;100479.13;;;13.33;100.00
19624;BME280;9959;49.798;9.928;2023-06-24T03:10:58;100484.94;;;13.43;100.00
19624;BME280;9959;49.798;9.928;2023-06-24T03:13:25;100483.47;;;13.40;100.00
19624;BME280;9959;49.798;9.928;2023-06-24T03:15:52;100497.00;;;13.47;100.00
19624;BME280;9959;49.798;9.928;2023-06-24T03:18:19;100495.13;;;13.41;100.00
19624;BME280;9959;49.798;9.928;2023-06-24T03:20:46;100487.44;;;13.51;100.00
19624;BME280;9959;49.798;9.928;2023-06-24T03:23:14;100487.47;;;13.38;100.00
19624;BME280;9959;49.798;9.928;2023-06-24T03:25:41;100496.59;;;13.50;100.00
19624;BME280;9959;49.798;9.928;2023-06-24T03:28:08;100497.00;;;13.40;100.00
19624;BME280;9959;49.798;9.928;2023-06-24T03:30:35;100493.25;;;13.48;100.00
19624;BME280;9959;49.798;9.928;2023-06-24T03:33:02;100501.59;;;13.46;100.00
19624;BME280;9959;49.798;9.928;2023-06-24T03:35:29;100494.94;;;13.49;100.00
19624;BME280;9959;49.798;9.928;2023-06-24T03:38:00;100496.59;;;13.50;100.00
19624;BME280;9959;49.798;9.928;2023-06-24T03:40:27;100487.44;;;13.51;100.00
19624;BME280;9959;49.798;9.928;2023-06-24T03:42:54;100485.13;;;13.61;100.00
19624;BME280;9959;49.798;9.928;2023-06-24T03:45:21;100494.88;;;13.75;100.00
19624;BME280;9959;49.798;9.928;2023-06-24T03:47:48;100492.19;;;13.75;100.00
19624;BME280;9959;49.798;9.928;2023-06-24T03:50:15;100492.78;;;13.77;100.00
19624;BME280;9959;49.798;9.928;2023-06-24T03:52:42;100504.03;;;13.87;100.00
19624;BME280;9959;49.798;9.928;2023-06-24T03:55:11;100496.31;;;13.84;100.00
19624;BME280;9959;49.798;9.928;2023-06-24T03:57:37;100504.25;;;13.79;100.00
19624;BME280;9959;49.798;9.928;2023-06-24T04:00:05;100501.97;;;13.76;100.00
19624;BME280;9959;49.798;9.928;2023-06-24T04:02:40;100505.28;;;13.78;100.00
19624;BME280;9959;49.798;9.928;2023-06-24T04:05:09;100511.13;;;13.75;100.00
19624;BME280;9959;49.798;9.928;2023-06-24T04:07:36;100527.38;;;13.75;100.00
19624;BME280;9959;49.798;9.928;2023-06-24T04:10:04;100509.88;;;13.71;100.00
19624;BME280;9959;49.798;9.928;2023-06-24T04:12:35;100514.47;;;13.77;100.00
19624;BME280;9959;49.798;9.928;2023-06-24T04:15:03;100524.66;;;13.88;100.00
19624;BME280;9959;49.798;9.928;2023-06-24T04:17:31;100516.88;;;14.05;100.00
19624;BME280;9959;49.798;9.928;2023-06-24T04:19:58;100519.44;;;13.94;100.00
19624;BME280;9959;49.798;9.928;2023-06-24T04:22:25;100524.25;;;13.92;100.00
19624;BME280;9959;49.798;9.928;2023-06-24T04:24:52;100523.41;;;13.91;100.00
19624;BME280;9959;49.798;9.928;2023-06-24T04:27:19;100532.13;;;14.00;100.00
19624;BME280;9959;49.798;9.928;2023-06-24T04:29:46;100532.31;;;14.05;100.00
19624;BME280;9959;49.798;9.928;2023-06-24T04:32:13;100525.22;;;14.04;100.00
19624;BME280;9959;49.798;9.928;2023-06-24T04:34:40;100530.63;;;14.10;100.00
19624;BME280;9959;49.798;9.928;2023-06-24T04:37:07;100534.78;;;14.19;100.00
19624;BME280;9959;49.798;9.928;2023-06-24T04:39:34;100543.91;;;14.25;100.00
19624;BME280;9959;49.798;9.928;2023-06-24T04:42:01;100548.56;;;14.18;100.00
19624;BME280;9959;49.798;9.928;2023-06-24T04:44:27;100552.31;;;14.17;100.00
19624;BME280;9959;49.798;9.928;2023-06-24T04:46:54;100552.88;;;14.26;100.00
19624;BME280;9959;49.798;9.928;2023-06-24T04:49:21;100553.91;;;14.38;100.00
19624;BME280;9959;49.798;9.928;2023-06-24T04:51:48;100544.53;;;14.34;100.00
19624;BME280;9959;49.798;9.928;2023-06-24T04:54:15;100545.53;;;14.39;100.00
19624;BME280;9959;49.798;9.928;2023-06-24T04:56:42;100546.00;;;14.43;100.00
19624;BME280;9959;49.798;9.928;2023-06-24T04:59:09;100552.16;;;14.56;100.00
19624;BME280;9959;49.798;9.928;2023-06-24T05:01:37;100549.22;;;14.65;100.00
19624;BME280;9959;49.798;9.928;2023-06-24T05:04:04;100554.25;;;14.61;100.00
19624;BME280;9959;49.798;9.928;2023-06-24T05:06:31;100546.25;;;14.73;100.00
19624;BME280;9959;49.798;9.928;2023-06-24T05:08:58;100554.06;;;14.94;100.00
19624;BME280;9959;49.798;9.928;2023-06-24T05:11:25;100559.47;;;15.01;100.00
19624;BME280;9959;49.798;9.928;2023-06-24T05:13:51;100562.31;;;15.06;100.00
19624;BME280;9959;49.798;9.928;2023-06-24T05:16:18;100566.56;;;15.02;100.00
19624;BME280;9959;49.798;9.928;2023-06-24T05:18:45;100567.19;;;15.29;100.00
19624;BME280;9959;49.798;9.928;2023-06-24T05:21:12;100570.28;;;15.32;100.00
19624;BME280;9959;49.798;9.928;2023-06-24T05:23:39;100578.38;;;15.39;100.00
19624;BME280;9959;49.798;9.928;2023-06-24T05:26:06;100570.41;;;15.44;100.00
19624;BME280;9959;49.798;9.928;2023-06-24T05:28:33;100567.00;;;15.55;100.00
19624;BME280;9959;49.798;9.928;2023-06-24T05:31:00;100565.22;;;15.67;100.00
19624;BME280;9959;49.798;9.928;2023-06-24T05:33:26;100560.53;;;15.81;100.00
19624;BME280;9959;49.798;9.928;2023-06-24T05:35:53;100556.31;;;15.85;100.00
19624;BME280;9959;49.798;9.928;2023-06-24T05:38:20;100555.47;;;15.84;100.00
19624;BME280;9959;49.798;9.928;2023-06-24T05:40:47;100564.59;;;15.90;100.00
19624;BME280;9959;49.798;9.928;2023-06-24T05:43:14;100563.34;;;16.11;100.00
19624;BME280;9959;49.798;9.928;2023-06-24T05:45:41;100560.91;;;16.21;99.14
19624;BME280;9959;49.798;9.928;2023-06-24T05:48:08;100565.59;;;16.14;99.22
19624;BME280;9959;49.798;9.928;2023-06-24T05:50:35;100561.16;;;16.19;98.21
19624;BME280;9959;49.798;9.928;2023-06-24T05:53:02;100563.06;;;16.37;97.42
19624;BME280;9959;49.798;9.928;2023-06-24T05:55:29;100575.44;;;16.33;97.58
19624;BME280;9959;49.798;9.928;2023-06-24T05:57:56;100573.19;;;16.67;95.60
19624;BME280;9959;49.798;9.928;2023-06-24T06:00:23;100568.91;;;16.89;94.19
19624;BME280;9959;49.798;9.928;2023-06-24T06:02:50;100565.66;;;16.80;94.23
19624;BME280;9959;49.798;9.928;2023-06-24T06:05:17;100572.47;;;17.01;93.60
19624;BME280;9959;49.798;9.928;2023-06-24T06:07:44;100573.28;;;17.32;91.87
19624;BME280;9959;49.798;9.928;2023-06-24T06:10:11;100570.31;;;17.33;91.45
19624;BME280;9959;49.798;9.928;2023-06-24T06:12:37;100571.19;;;17.57;90.36
19624;BME280;9959;49.798;9.928;2023-06-24T06:15:05;100572.13;;;17.51;90.38
19624;BME280;9959;49.798;9.928;2023-06-24T06:17:32;100570.13;;;17.46;90.21
19624;BME280;9959;49.798;9.928;2023-06-24T06:19:59;100574.88;;;17.63;89.88
19624;BME280;9959;49.798;9.928;2023-06-24T06:22:25;100566.63;;;17.81;88.58
19624;BME280;9959;49.798;9.928;2023-06-24T06:24:52;100562.25;;;17.68;88.99
19624;BME280;9959;49.798;9.928;2023-06-24T06:27:19;100559.88;;;17.83;88.18
19624;BME280;9959;49.798;9.928;2023-06-24T06:29:46;100563.44;;;17.96;87.58
19624;BME280;9959;49.798;9.928;2023-06-24T06:32:13;100561.50;;;18.31;85.80
19624;BME280;9959;49.798;9.928;2023-06-24T06:34:39;100555.94;;;18.26;85.75
19624;BME280;9959;49.798;9.928;2023-06-24T06:37:06;100549.66;;;18.25;85.70
19624;BME280;9959;49.798;9.928;2023-06-24T06:39:33;100546.03;;;18.48;84.51
19624;BME280;9959;49.798;9.928;2023-06-24T06:42:00;100550.13;;;18.74;83.52
19624;BME280;9959;49.798;9.928;2023-06-24T06:44:27;100545.63;;;18.97;82.21
19624;BME280;9959;49.798;9.928;2023-06-24T06:46:53;100548.47;;;19.02;81.92
19624;BME280;9959;49.798;9.928;2023-06-24T06:49:20;100546.06;;;19.05;81.53
19624;BME280;9959;49.798;9.928;2023-06-24T06:51:47;100545.25;;;19.21;80.54
19624;BME280;9959;49.798;9.928;2023-06-24T06:54:14;100540.06;;;19.70;78.59
19624;BME280;9959;49.798;9.928;2023-06-24T06:56:41;100542.31;;;19.90;77.15
19624;BME280;9959;49.798;9.928;2023-06-24T06:59:08;100539.19;;;20.03;76.33
19624;BME280;9959;49.798;9.928;2023-06-24T07:01:34;100544.06;;;20.18;75.35
19624;BME280;9959;49.798;9.928;2023-06-24T07:04:01;100545.91;;;20.34;74.60
19624;BME280;9959;49.798;9.928;2023-06-24T07:06:28;100535.09;;;20.66;72.46
19624;BME280;9959;49.798;9.928;2023-06-24T07:08:55;100541.53;;;20.55;72.83
19624;BME280;9959;49.798;9.928;2023-06-24T07:11:22;100535.97;;;20.45;71.04
19624;BME280;9959;49.798;9.928;2023-06-24T07:13:50;100532.25;;;20.83;68.20
19624;BME280;9959;49.798;9.928;2023-06-24T07:16:18;100527.34;;;20.85;67.85
19624;BME280;9959;49.798;9.928;2023-06-24T07:18:44;100523.72;;;21.06;66.42
19624;BME280;9959;49.798;9.928;2023-06-24T07:21:11;100537.22;;;21.40;61.30
19624;BME280;9959;49.798;9.928;2023-06-24T07:23:38;100535.84;;;21.74;62.40
19624;BME280;9959;49.798;9.928;2023-06-24T07:26:05;100531.72;;;21.72;63.07
19624;BME280;9959;49.798;9.928;2023-06-24T07:28:32;100537.41;;;21.65;61.20
19624;BME280;9959;49.798;9.928;2023-06-24T07:30:59;100544.47;;;22.35;59.62
19624;BME280;9959;49.798;9.928;2023-06-24T07:33:26;100540.44;;;22.01;58.39
19624;BME280;9959;49.798;9.928;2023-06-24T07:35:53;100538.88;;;22.20;58.83
19624;BME280;9959;49.798;9.928;2023-06-24T07:38:20;100537.81;;;22.88;56.83
19624;BME280;9959;49.798;9.928;2023-06-24T07:40:47;100532.94;;;23.21;55.49
19624;BME280;9959;49.798;9.928;2023-06-24T07:43:14;100540.31;;;23.05;55.94
19624;BME280;9959;49.798;9.928;2023-06-24T07:45:41;100539.25;;;23.57;54.24
19624;BME280;9959;49.798;9.928;2023-06-24T07:48:08;100540.31;;;23.05;55.52
19624;BME280;9959;49.798;9.928;2023-06-24T07:50:35;100533.22;;;23.50;54.59
19624;BME280;9959;49.798;9.928;2023-06-24T07:53:02;100541.66;;;24.14;52.30
19624;BME280;9959;49.798;9.928;2023-06-24T07:55:29;100544.34;;;24.35;51.56
19624;BME280;9959;49.798;9.928;2023-06-24T07:57:56;100538.59;;;24.21;51.75
19624;BME280;9959;49.798;9.928;2023-06-24T08:00:25;100536.13;;;24.89;49.80
19624;BME280;9959;49.798;9.928;2023-06-24T08:02:52;100527.81;;;24.99;49.43
19624;BME280;9959;49.798;9.928;2023-06-24T08:05:21;100535.50;;;24.53;50.17
19624;BME280;9959;49.798;9.928;2023-06-24T08:07:47;100531.47;;;24.25;51.17
19624;BME280;9959;49.798;9.928;2023-06-24T08:10:14;100531.53;;;25.18;49.06
19624;BME280;9959;49.798;9.928;2023-06-24T08:12:41;100537.88;;;24.70;49.21
19624;BME280;9959;49.798;9.928;2023-06-24T08:15:08;100543.84;;;24.87;48.82
19624;BME280;9959;49.798;9.928;2023-06-24T08:17:35;100530.34;;;24.85;49.15
19624;BME280;9959;49.798;9.928;2023-06-24T08:20:03;100535.34;;;25.22;47.69
19624;BME280;9959;49.798;9.928;2023-06-24T08:22:32;100532.38;;;26.35;45.23
19624;BME280;9959;49.798;9.928;2023-06-24T08:24:58;100535.38;;;26.38;44.61
19624;BME280;9959;49.798;9.928;2023-06-24T08:27:25;100525.19;;;26.57;44.41
19624;BME280;9959;49.798;9.928;2023-06-24T08:29:52;100525.63;;;26.22;43.66
19624;BME280;9959;49.798;9.928;2023-06-24T08:32:19;100528.91;;;24.98;45.87
19624;BME280;9959;49.798;9.928;2023-06-24T08:34:46;100527.50;;;26.50;42.21
19624;BME280;9959;49.798;9.928;2023-06-24T08:37:13;100516.56;;;26.16;42.21
19624;BME280;9959;49.798;9.928;2023-06-24T08:39:40;100523.50;;;26.38;42.72
19624;BME280;9959;49.798;9.928;2023-06-24T08:42:07;100509.81;;;26.89;41.17
19624;BME280;9959;49.798;9.928;2023-06-24T08:44:34;100523.53;;;26.99;40.94
19624;BME280;9959;49.798;9.928;2023-06-24T08:47:01;100522.78;;;26.03;41.96
19624;BME280;9959;49.798;9.928;2023-06-24T08:49:32;100516.06;;;25.85;42.37
19624;BME280;9959;49.798;9.928;2023-06-24T08:52:08;100519.72;;;26.05;42.75
19624;BME280;9959;49.798;9.928;2023-06-24T08:54:40;100518.94;;;26.71;40.73
19624;BME280;9959;49.798;9.928;2023-06-24T08:57:07;100516.56;;;26.40;41.76
19624;BME280;9959;49.798;9.928;2023-06-24T08:59:37;100519.28;;;26.64;41.37
19624;BME280;9959;49.798;9.928;2023-06-24T09:02:05;100518.94;;;26.71;41.24
19624;BME280;9959;49.798;9.928;2023-06-24T09:04:32;100511.84;;;25.69;42.35
19624;BME280;9959;49.798;9.928;2023-06-24T09:06:59;100521.34;;;26.53;41.05
19624;BME280;9959;49.798;9.928;2023-06-24T09:09:26;100512.50;;;26.09;42.13
19624;BME280;9959;49.798;9.928;2023-06-24T09:11:59;100505.22;;;27.03;40.17
19624;BME280;9959;49.798;9.928;2023-06-24T09:14:29;100505.94;;;26.90;39.86
19624;BME280;9959;49.798;9.928;2023-06-24T09:16:59;100509.78;;;27.91;38.32
19624;BME280;9959;49.798;9.928;2023-06-24T09:19:29;100504.81;;;28.35;37.28
19624;BME280;9959;49.798;9.928;2023-06-24T09:22:03;100509.63;;;27.04;38.89
19624;BME280;9959;49.798;9.928;2023-06-24T09:24:31;100498.56;;;27.04;39.06
19624;BME280;9959;49.798;9.928;2023-06-24T09:26:59;100491.75;;;26.78;38.66
19624;BME280;9959;49.798;9.928;2023-06-24T09:29:27;100495.94;;;28.19;36.97
19624;BME280;9959;49.798;9.928;2023-06-24T09:31:56;100497.28;;;26.35;38.43
19624;BME280;9959;49.798;9.928;2023-06-24T09:34:25;100498.13;;;26.97;36.98
19624;BME280;9959;49.798;9.928;2023-06-24T09:36:55;100493.44;;;27.11;35.80
19624;BME280;9959;49.798;9.928;2023-06-24T09:39:23;100486.34;;;27.24;37.04
19624;BME280;9959;49.798;9.928;2023-06-24T09:41:57;100486.41;;;27.19;36.78
19624;BME280;9959;49.798;9.928;2023-06-24T09:44:26;100488.09;;;27.01;36.78
19624;BME280;9959;49.798;9.928;2023-06-24T09:46:54;100483.09;;;27.36;36.49
19624;BME280;9959;49.798;9.928;2023-06-24T09:49:23;100475.75;;;28.05;34.88
19624;BME280;9959;49.798;9.928;2023-06-24T09:51:55;100476.88;;;28.04;34.21
19624;BME280;9959;49.798;9.928;2023-06-24T09:54:27;100474.09;;;26.55;35.39
19624;BME280;9959;49.798;9.928;2023-06-24T09:57:01;100470.28;;;26.27;36.60
19624;BME280;9959;49.798;9.928;2023-06-24T09:59:30;100467.03;;;27.05;35.38
19624;BME280;9959;49.798;9.928;2023-06-24T10:01:57;100474.44;;;27.56;34.70
19624;BME280;9959;49.798;9.928;2023-06-24T10:04:26;100460.53;;;27.28;36.45
19624;BME280;9959;49.798;9.928;2023-06-24T10:06:54;100455.16;;;28.60;34.40
19624;BME280;9959;49.798;9.928;2023-06-24T10:09:21;100442.72;;;29.39;33.74
19624;BME280;9959;49.798;9.928;2023-06-24T10:11:48;100450.63;;;27.87;36.37
19624;BME280;9959;49.798;9.928;2023-06-24T10:14:15;100458.09;;;27.08;37.16
19624;BME280;9959;49.798;9.928;2023-06-24T10:16:44;100460.25;;;27.76;37.07
19624;BME280;9959;49.798;9.928;2023-06-24T10:19:18;100456.88;;;25.44;40.77
19624;BME280;9959;49.798;9.928;2023-06-24T10:21:49;100454.28;;;25.81;39.25
19624;BME280;9959;49.798;9.928;2023-06-24T10:24:36;100450.97;;;24.87;41.50
19624;BME280;9959;49.798;9.928;2023-06-24T10:27:22;100446.63;;;25.15;40.01
19624;BME280;9959;49.798;9.928;2023-06-24T10:29:53;100437.84;;;25.71;39.19
19624;BME280;9959;49.798;9.928;2023-06-24T10:32:22;100434.22;;;26.42;37.98
19624;BME280;9959;49.798;9.928;2023-06-24T10:34:56;100428.72;;;27.12;36.54
19624;BME280;9959;49.798;9.928;2023-06-24T10:37:31;100436.56;;;27.38;35.54
19624;BME280;9959;49.798;9.928;2023-06-24T10:40:00;100426.50;;;27.60;35.58
19624;BME280;9959;49.798;9.928;2023-06-24T10:45:01;100421.91;;;27.83;35.44
19624;BME280;9959;49.798;9.928;2023-06-24T10:47:29;100416.75;;;28.68;34.20
19624;BME280;9959;49.798;9.928;2023-06-24T10:49:57;100425.34;;;27.15;35.55
19624;BME280;9959;49.798;9.928;2023-06-24T10:52:24;100410.84;;;28.83;33.59
19624;BME280;9959;49.798;9.928;2023-06-24T10:54:52;100412.66;;;28.02;35.50
19624;BME280;9959;49.798;9.928;2023-06-24T10:57:26;100395.53;;;29.39;33.31
19624;BME280;9959;49.798;9.928;2023-06-24T10:59:56;100396.59;;;28.40;35.33
19624;BME280;9959;49.798;9.928;2023-06-24T11:02:25;100405.16;;;28.02;35.05
19624;BME280;9959;49.798;9.928;2023-06-24T11:04:54;100398.38;;;27.53;35.44
19624;BME280;9959;49.798;9.928;2023-06-24T11:07:25;100392.44;;;28.87;33.47
19624;BME280;9959;49.798;9.928;2023-06-24T11:09:56;100397.94;;;27.33;36.66
19624;BME280;9959;49.798;9.928;2023-06-24T11:12:32;100382.53;;;27.26;36.30
19624;BME280;9959;49.798;9.928;2023-06-24T11:15:17;100390.19;;;26.64;37.41
19624;BME280;9959;49.798;9.928;2023-06-24T11:17:45;100386.78;;;26.86;36.73
19624;BME280;9959;49.798;9.928;2023-06-24T11:20:13;100391.91;;;26.98;36.50
19624;BME280;9959;49.798;9.928;2023-06-24T11:22:42;100389.22;;;26.55;37.91
19624;BME280;9959;49.798;9.928;2023-06-24T11:25:19;100391.56;;;26.48;37.42
19624;BME280;9959;49.798;9.928;2023-06-24T11:27:47;100387.72;;;26.25;37.87
19624;BME280;9959;49.798;9.928;2023-06-24T11:30:14;100383.09;;;26.77;37.29
19624;BME280;9959;49.798;9.928;2023-06-24T11:32:42;100392.06;;;27.20;36.45
19624;BME280;9959;49.798;9.928;2023-06-24T11:35:10;100383.47;;;28.32;33.82
19624;BME280;9959;49.798;9.928;2023-06-24T11:37:41;100379.50;;;29.05;32.43
19624;BME280;9959;49.798;9.928;2023-06-24T11:40:09;100379.19;;;29.06;32.60
19624;BME280;9959;49.798;9.928;2023-06-24T11:42:37;100371.53;;;28.45;33.19
19624;BME280;9959;49.798;9.928;2023-06-24T11:45:10;100373.63;;;30.08;31.02
19624;BME280;9959;49.798;9.928;2023-06-24T11:47:41;100372.31;;;29.35;29.65
19624;BME280;9959;49.798;9.928;2023-06-24T11:50:11;100365.78;;;30.44;29.39
19624;BME280;9959;49.798;9.928;2023-06-24T11:52:42;100365.97;;;30.91;30.18
19624;BME280;9959;49.798;9.928;2023-06-24T11:55:20;100362.22;;;30.35;30.71
19624;BME280;9959;49.798;9.928;2023-06-24T12:00:22;100353.63;;;31.09;29.09
19624;BME280;9959;49.798;9.928;2023-06-24T12:02:52;100358.91;;;30.16;30.31
19624;BME280;9959;49.798;9.928;2023-06-24T12:05:21;100359.91;;;30.72;29.74
19624;BME280;9959;49.798;9.928;2023-06-24T12:07:56;100361.50;;;31.07;28.93
19624;BME280;9959;49.798;9.928;2023-06-24T12:10:24;100349.97;;;30.62;29.65
19624;BME280;9959;49.798;9.928;2023-06-24T12:12:51;100346.31;;;30.44;29.94
19624;BME280;9959;49.798;9.928;2023-06-24T12:15:19;100346.94;;;30.93;28.55
19624;BME280;9959;49.798;9.928;2023-06-24T12:17:46;100341.84;;;29.91;30.51
19624;BME280;9959;49.798;9.928;2023-06-24T12:20:16;100341.81;;;29.74;30.57
19624;BME280;9959;49.798;9.928;2023-06-24T12:22:46;100342.34;;;31.14;28.81
19624;BME280;9959;49.798;9.928;2023-06-24T12:25:13;100338.22;;;31.67;27.01
19624;BME280;9959;49.798;9.928;2023-06-24T12:27:41;100329.88;;;31.20;27.14
19624;BME280;9959;49.798;9.928;2023-06-24T12:30:10;100331.69;;;31.54;27.22
19624;BME280;9959;49.798;9.928;2023-06-24T12:32:37;100323.09;;;31.39;26.52
19624;BME280;9959;49.798;9.928;2023-06-24T12:35:05;100322.38;;;29.91;27.98
19624;BME280;9959;49.798;9.928;2023-06-24T12:37:32;100317.63;;;29.04;30.11
19624;BME280;9959;49.798;9.928;2023-06-24T12:40:00;100315.63;;;29.27;30.58
19624;BME280;9959;49.798;9.928;2023-06-24T12:42:27;100307.28;;;28.87;31.82
19624;BME280;9959;49.798;9.928;2023-06-24T12:44:54;100310.09;;;28.96;31.28
19624;BME280;9959;49.798;9.928;2023-06-24T12:47:22;100309.84;;;28.03;32.56
19624;BME280;9959;49.798;9.928;2023-06-24T12:49:49;100305.66;;;28.73;30.92
19624;BME280;9959;49.798;9.928;2023-06-24T12:52:16;100295.63;;;28.32;31.92
19624;BME280;9959;49.798;9.928;2023-06-24T12:54:43;100300.78;;;28.47;31.58
19624;BME280;9959;49.798;9.928;2023-06-24T12:57:11;100306.06;;;28.80;31.17
19624;BME280;9959;49.798;9.928;2023-06-24T12:59:40;100303.91;;;27.96;32.38
19624;BME280;9959;49.798;9.928;2023-06-24T13:02:07;100300.91;;;28.06;31.93
19624;BME280;9959;49.798;9.928;2023-06-24T13:04:34;100300.13;;;29.74;29.22
19624;BME280;9959;49.798;9.928;2023-06-24T13:07:02;100293.38;;;31.51;27.44
19624;BME280;9959;49.798;9.928;2023-06-24T13:09:30;100290.50;;;31.39;27.14
19624;BME280;9959;49.798;9.928;2023-06-24T13:11:57;100282.72;;;30.17;29.23
19624;BME280;9959;49.798;9.928;2023-06-24T13:14:24;100286.16;;;30.57;28.63
19624;BME280;9959;49.798;9.928;2023-06-24T13:16:54;100284.34;;;30.09;29.53
19624;BME280;9959;49.798;9.928;2023-06-24T13:19:22;100283.50;;;30.78;29.60
19624;BME280;9959;49.798;9.928;2023-06-24T13:21:49;100284.22;;;32.01;26.98